createdAt,value
2022-12-09T00:00:23.546Z,76.31
2022-12-09T00:02:50.580Z,76.17
2022-12-09T00:05:18.142Z,76.29
2022-12-09T00:07:44.832Z,76.35
2022-12-09T00:10:11.818Z,76.31
2022-12-09T00:12:38.847Z,76.03
2022-12-09T00:15:05.619Z,76.22
2022-12-09T00:17:32.321Z,76.24
2022-12-09T00:19:58.848Z,76.29
2022-12-09T00:22:26.415Z,76.28
2022-12-09T00:24:53.150Z,75.87
2022-12-09T00:27:19.627Z,76.12
2022-12-09T00:29:46.090Z,76.17
2022-12-09T00:32:12.689Z,76.36
2022-12-09T00:34:39.240Z,76.20
2022-12-09T00:37:05.901Z,76.00
2022-12-09T00:39:32.406Z,76.06
2022-12-09T00:41:59.017Z,75.89
2022-12-09T00:44:25.620Z,76.31
2022-12-09T00:46:52.223Z,76.33
2022-12-09T00:49:19.004Z,76.29
2022-12-09T00:51:45.908Z,76.47
2022-12-09T00:54:13.119Z,76.56
2022-12-09T00:56:39.714Z,76.43
2022-12-09T00:59:06.409Z,76.42
2022-12-09T01:01:33.083Z,76.42
2022-12-09T01:03:59.795Z,76.81
2022-12-09T01:06:26.756Z,77.30
2022-12-09T01:08:53.651Z,77.02
2022-12-09T01:11:21.153Z,76.80
2022-12-09T01:13:47.864Z,77.24
2022-12-09T01:16:18.908Z,77.25
2022-12-09T01:18:45.600Z,77.22
2022-12-09T01:21:12.307Z,77.37
2022-12-09T01:23:39.007Z,77.57
2022-12-09T01:26:06.730Z,77.62
2022-12-09T01:28:36.505Z,77.51
2022-12-09T01:31:10.121Z,77.65
2022-12-09T01:33:37.017Z,77.99
2022-12-09T01:36:07.328Z,77.47
2022-12-09T01:38:33.878Z,77.67
2022-12-09T01:41:00.529Z,77.66
2022-12-09T01:43:27.384Z,77.54
2022-12-09T01:45:54.260Z,77.66
2022-12-09T01:48:21.915Z,77.54
2022-12-09T01:50:51.552Z,77.94
2022-12-09T01:53:18.484Z,77.74
2022-12-09T01:55:45.127Z,77.62
2022-12-09T01:58:11.954Z,77.68
2022-12-09T02:00:38.682Z,77.91
2022-12-09T02:03:05.640Z,77.92
2022-12-09T02:05:32.480Z,77.96
2022-12-09T02:07:59.522Z,77.72
2022-12-09T02:10:26.340Z,77.63
2022-12-09T02:13:02.218Z,77.86
2022-12-09T02:15:40.261Z,77.83
2022-12-09T02:18:18.534Z,77.81
2022-12-09T02:20:46.043Z,78.20
2022-12-09T02:23:18.163Z,78.06
2022-12-09T02:25:48.314Z,77.95
2022-12-09T02:28:27.109Z,77.97
2022-12-09T02:31:12.642Z,78.05
2022-12-09T02:33:39.189Z,77.78
2022-12-09T02:36:05.904Z,78.01
2022-12-09T02:38:32.607Z,78.26
2022-12-09T02:41:02.671Z,78.16
2022-12-09T02:43:30.612Z,77.78
2022-12-09T02:45:57.313Z,77.85
2022-12-09T02:48:25.668Z,78.02
2022-12-09T02:50:52.143Z,77.89
2022-12-09T02:53:18.717Z,77.73
2022-12-09T02:55:45.531Z,78.24
2022-12-09T02:58:12.058Z,77.92
2022-12-09T03:00:38.586Z,78.00
2022-12-09T03:03:05.591Z,78.18
2022-12-09T03:05:47.897Z,78.09
2022-12-09T03:11:43.350Z,77.65
2022-12-09T03:14:09.904Z,77.92
2022-12-09T03:16:37.632Z,77.99
2022-12-09T03:19:19.425Z,77.99
2022-12-09T03:21:46.643Z,78.25
2022-12-09T03:24:13.718Z,77.81
2022-12-09T03:26:40.363Z,78.25
2022-12-09T03:29:07.651Z,78.03
2022-12-09T03:31:34.349Z,77.99
2022-12-09T03:34:02.338Z,78.24
2022-12-09T03:36:29.383Z,77.85
2022-12-09T03:38:56.241Z,78.31
2022-12-09T03:41:30.155Z,78.11
2022-12-09T03:44:02.133Z,78.39
2022-12-09T03:46:29.029Z,78.17
2022-12-09T03:48:56.421Z,78.16
2022-12-09T03:51:43.207Z,78.22
2022-12-09T03:54:33.351Z,78.25
2022-12-09T03:56:59.894Z,78.48
2022-12-09T03:59:30.002Z,78.89
2022-12-09T04:01:56.556Z,78.78
2022-12-09T04:04:23.555Z,78.56
2022-12-09T04:06:50.664Z,78.52
2022-12-09T04:09:17.171Z,78.65
2022-12-09T04:11:43.830Z,78.77
2022-12-09T04:14:15.229Z,78.40
2022-12-09T04:16:42.521Z,78.43
2022-12-09T04:19:09.146Z,78.57
2022-12-09T04:21:35.891Z,78.60
2022-12-09T04:24:02.544Z,78.62
2022-12-09T04:26:29.217Z,78.56
2022-12-09T04:28:55.665Z,78.99
2022-12-09T04:31:46.435Z,78.32
2022-12-09T04:34:12.999Z,78.53
2022-12-09T04:36:39.606Z,78.43
2022-12-09T04:42:34.154Z,78.43
2022-12-09T04:45:00.907Z,78.52
2022-12-09T04:47:27.863Z,78.43
2022-12-09T04:53:23.308Z,78.66
2022-12-09T04:55:49.773Z,78.38
2022-12-09T04:58:16.210Z,78.53
2022-12-09T05:04:10.423Z,78.74
2022-12-09T05:06:37.317Z,78.55
2022-12-09T05:09:04.325Z,77.53
2022-12-09T05:11:31.315Z,77.70
2022-12-09T05:13:57.954Z,77.51
2022-12-09T05:16:24.857Z,77.50
2022-12-09T05:18:51.613Z,77.77
2022-12-09T05:21:18.763Z,77.88
2022-12-09T05:23:45.801Z,78.15
2022-12-09T05:26:13.242Z,78.18
2022-12-09T05:28:40.207Z,78.08
2022-12-09T05:31:08.027Z,78.61
2022-12-09T05:33:35.028Z,78.05
2022-12-09T05:36:01.996Z,77.93
2022-12-09T05:38:29.943Z,77.99
2022-12-09T05:40:59.034Z,78.28
2022-12-09T05:43:25.951Z,78.13
2022-12-09T05:45:52.907Z,77.92
2022-12-09T05:48:19.521Z,77.60
2022-12-09T05:50:46.167Z,77.95
2022-12-09T05:53:12.848Z,78.00
2022-12-09T05:55:42.849Z,77.87
2022-12-09T05:58:09.763Z,78.13
2022-12-09T06:00:36.463Z,78.43
2022-12-09T06:03:03.422Z,78.17
2022-12-09T06:05:30.271Z,78.03
2022-12-09T06:07:59.017Z,78.07
2022-12-09T06:10:28.954Z,78.02
2022-12-09T06:12:56.169Z,77.96
2022-12-09T06:15:26.767Z,78.08
2022-12-09T06:17:56.583Z,78.05
2022-12-09T06:20:23.410Z,78.04
2022-12-09T06:22:50.266Z,77.92
2022-12-09T06:25:16.932Z,78.04
2022-12-09T06:27:43.873Z,78.12
2022-12-09T06:30:10.714Z,78.03
2022-12-09T06:32:37.502Z,77.96
2022-12-09T06:35:04.367Z,78.03
2022-12-09T06:37:32.692Z,78.03
2022-12-09T06:39:59.450Z,78.18
2022-12-09T06:42:26.000Z,77.85
2022-12-09T06:44:52.848Z,77.90
2022-12-09T06:47:19.433Z,78.17
2022-12-09T06:49:46.950Z,78.14
2022-12-09T06:52:14.216Z,78.41
2022-12-09T06:54:40.765Z,77.80
2022-12-09T06:57:07.326Z,77.99
2022-12-09T07:00:15.323Z,77.89
2022-12-09T07:02:41.994Z,77.87
2022-12-09T07:05:09.460Z,77.82
2022-12-09T07:07:36.286Z,77.88
2022-12-09T07:10:06.657Z,77.72
2022-12-09T07:12:33.473Z,77.92
2022-12-09T07:15:00.094Z,77.96
2022-12-09T07:17:27.088Z,77.48
2022-12-09T07:19:53.689Z,77.46
2022-12-09T07:22:20.946Z,77.51
2022-12-09T07:24:47.528Z,77.92
2022-12-09T07:27:19.205Z,77.66
2022-12-09T07:29:47.478Z,77.74
2022-12-09T07:32:14.868Z,77.87
2022-12-09T07:34:41.605Z,77.14
2022-12-09T07:37:08.675Z,77.35
2022-12-09T07:39:35.442Z,77.04
2022-12-09T07:42:02.260Z,76.84
2022-12-09T07:44:28.949Z,77.23
2022-12-09T07:46:55.833Z,76.78
2022-12-09T07:49:22.588Z,77.01
2022-12-09T07:51:49.538Z,77.59
2022-12-09T07:54:17.110Z,77.48
2022-12-09T07:56:43.665Z,77.33
2022-12-09T07:59:10.389Z,77.37
2022-12-09T08:01:37.163Z,77.57
2022-12-09T08:04:05.199Z,77.58
2022-12-09T08:06:32.203Z,77.42
2022-12-09T08:08:59.845Z,77.07
2022-12-09T08:11:27.527Z,76.56
2022-12-09T08:13:55.907Z,76.53
2022-12-09T08:16:23.147Z,76.67
2022-12-09T08:18:50.668Z,76.51
2022-12-09T08:21:35.920Z,76.31
2022-12-09T08:24:03.321Z,76.58
2022-12-09T08:26:30.692Z,76.97
2022-12-09T08:28:57.402Z,76.64
2022-12-09T08:31:25.623Z,77.25
2022-12-09T08:33:52.925Z,76.96
2022-12-09T08:36:20.426Z,77.56
2022-12-09T08:38:47.424Z,76.34
2022-12-09T08:41:21.501Z,76.20
2022-12-09T08:43:48.434Z,75.47
2022-12-09T08:46:15.459Z,75.65
2022-12-09T08:48:42.617Z,75.84
2022-12-09T08:51:09.950Z,75.42
2022-12-09T08:53:37.074Z,75.82
2022-12-09T08:56:13.698Z,75.60
2022-12-09T08:58:40.395Z,75.96
2022-12-09T09:01:07.240Z,75.77
2022-12-09T09:03:34.238Z,75.84
2022-12-09T09:06:08.750Z,75.87
2022-12-09T09:08:36.185Z,76.09
2022-12-09T09:11:10.735Z,75.78
2022-12-09T09:13:39.257Z,76.04
2022-12-09T09:16:09.441Z,75.57
2022-12-09T09:18:36.751Z,76.20
2022-12-09T09:21:03.617Z,75.83
2022-12-09T09:23:30.201Z,75.70
2022-12-09T09:25:56.814Z,75.07
2022-12-09T09:28:30.643Z,75.04
2022-12-09T09:31:01.707Z,75.11
2022-12-09T09:33:37.177Z,75.91
2022-12-09T09:36:09.631Z,75.14
2022-12-09T09:38:36.765Z,75.11
2022-12-09T09:41:06.994Z,74.98
2022-12-09T09:43:34.353Z,75.04
2022-12-09T09:46:01.165Z,75.08
2022-12-09T09:48:28.889Z,75.12
2022-12-09T09:50:58.542Z,74.90
2022-12-09T09:53:26.813Z,74.46
2022-12-09T09:55:57.533Z,74.37
2022-12-09T09:58:26.203Z,73.83
2022-12-09T10:00:53.307Z,74.04
2022-12-09T10:03:20.065Z,74.29
2022-12-09T10:05:50.284Z,74.23
2022-12-09T10:08:26.235Z,73.77
2022-12-09T10:10:56.737Z,74.62
2022-12-09T10:13:37.545Z,74.00
2022-12-09T10:16:17.946Z,74.49
2022-12-09T10:18:48.132Z,74.65
2022-12-09T10:21:18.164Z,73.93
2022-12-09T10:23:45.243Z,74.29
2022-12-09T10:26:28.178Z,73.37
2022-12-09T10:29:18.070Z,72.53
2022-12-09T10:31:44.631Z,73.04
2022-12-09T10:34:12.607Z,72.01
2022-12-09T10:36:39.480Z,71.09
2022-12-09T10:39:06.236Z,70.27
2022-12-09T10:41:54.655Z,70.40
2022-12-09T10:44:21.920Z,70.36
2022-12-09T10:46:48.761Z,70.48
2022-12-09T10:49:19.378Z,71.25
2022-12-09T10:51:50.236Z,71.01
2022-12-09T10:54:21.020Z,71.27
2022-12-09T10:57:02.156Z,70.66
2022-12-09T10:59:29.971Z,71.16
2022-12-09T11:01:56.788Z,71.24
2022-12-09T11:04:30.781Z,70.94
2022-12-09T11:07:00.144Z,71.00
2022-12-09T11:09:32.093Z,70.45
2022-12-09T11:11:59.277Z,70.83
2022-12-09T11:14:25.878Z,71.37
2022-12-09T11:16:52.980Z,71.67
2022-12-09T11:19:28.550Z,71.41
2022-12-09T11:22:04.080Z,70.77
2022-12-09T11:24:31.063Z,70.25
2022-12-09T11:26:58.102Z,70.73
2022-12-09T11:29:24.823Z,71.23
2022-12-09T11:31:51.515Z,70.94
2022-12-09T11:34:20.930Z,70.25
2022-12-09T11:36:51.466Z,71.23
2022-12-09T11:39:27.150Z,72.17
2022-12-09T11:42:18.614Z,71.95
2022-12-09T11:45:06.293Z,72.45
2022-12-09T11:47:50.417Z,73.01
2022-12-09T11:50:24.141Z,73.11
2022-12-09T11:53:09.470Z,73.05
2022-12-09T11:55:36.663Z,73.57
2022-12-09T11:58:04.224Z,73.50
2022-12-09T12:00:34.205Z,74.17
2022-12-09T12:03:23.403Z,74.31
2022-12-09T12:05:50.433Z,74.52
2022-12-09T12:08:19.933Z,74.07
2022-12-09T12:10:55.656Z,74.16
2022-12-09T12:13:29.228Z,74.73
2022-12-09T12:15:59.020Z,75.12
2022-12-09T12:18:25.414Z,75.13
2022-12-09T12:21:09.404Z,75.18
2022-12-09T12:23:35.788Z,75.12
2022-12-09T12:26:24.983Z,75.03
2022-12-09T12:29:11.170Z,75.47
2022-12-09T12:31:53.278Z,75.48
2022-12-09T12:34:39.070Z,75.57
2022-12-09T12:37:18.617Z,75.71
2022-12-09T12:40:03.928Z,75.53
2022-12-09T12:42:33.250Z,75.45
2022-12-09T12:45:19.798Z,75.77
2022-12-09T12:47:47.291Z,75.32
2022-12-09T12:50:32.421Z,75.60
2022-12-09T12:53:18.241Z,76.01
2022-12-09T12:55:57.413Z,75.87
2022-12-09T12:58:23.813Z,75.73
2022-12-09T13:01:04.935Z,75.53
2022-12-09T13:03:50.307Z,76.05
2022-12-09T13:06:17.717Z,75.48
2022-12-09T13:09:02.796Z,75.71
2022-12-09T13:11:35.660Z,76.12
2022-12-09T13:14:03.522Z,75.91
2022-12-09T13:16:31.693Z,76.47
2022-12-09T13:19:19.174Z,76.05
2022-12-09T13:21:45.737Z,76.15
2022-12-09T13:24:22.005Z,76.54
2022-12-09T13:26:51.515Z,76.31
2022-12-09T13:29:21.187Z,76.28
2022-12-09T13:32:02.756Z,76.50
2022-12-09T13:34:32.170Z,76.57
2022-12-09T13:36:58.594Z,76.45
2022-12-09T13:39:40.353Z,76.68
2022-12-09T13:42:46.359Z,76.99
2022-12-09T13:45:25.056Z,76.82
2022-12-09T13:47:53.317Z,76.84
2022-12-09T13:50:26.399Z,77.31
2022-12-09T13:52:53.745Z,76.94
2022-12-09T13:55:22.849Z,76.88
2022-12-09T13:58:08.229Z,76.93
2022-12-09T14:00:34.635Z,77.32
2022-12-09T14:03:02.795Z,77.36
2022-12-09T14:05:29.529Z,77.50
2022-12-09T14:08:00.319Z,77.09
2022-12-09T14:10:46.365Z,77.14
2022-12-09T14:13:19.556Z,77.18
2022-12-09T14:15:46.536Z,77.62
2022-12-09T14:18:26.227Z,77.54
2022-12-09T14:21:11.473Z,77.37
2022-12-09T14:23:38.292Z,77.42
2022-12-09T14:26:05.947Z,77.42
2022-12-09T14:28:36.866Z,77.61
2022-12-09T14:31:08.470Z,77.78
2022-12-09T14:33:35.488Z,77.55
2022-12-09T14:36:06.479Z,77.88
2022-12-09T14:39:07.764Z,77.84
2022-12-09T14:41:36.944Z,78.44
2022-12-09T14:44:08.719Z,78.34
2022-12-09T14:46:38.882Z,78.96
2022-12-09T14:49:31.855Z,78.93
2022-12-09T14:52:03.468Z,79.04
2022-12-09T14:54:33.647Z,79.65
2022-12-09T14:57:00.884Z,79.65
2022-12-09T14:59:28.185Z,80.10
2022-12-09T15:01:56.319Z,80.05
2022-12-09T15:04:33.512Z,80.50
2022-12-09T15:07:16.206Z,80.29
2022-12-09T15:09:51.810Z,80.59
2022-12-09T15:12:18.447Z,80.84
2022-12-09T15:14:45.068Z,81.13
2022-12-09T15:17:15.595Z,81.12
2022-12-09T15:22:29.422Z,81.05
2022-12-09T15:24:55.867Z,81.17
2022-12-09T15:27:22.993Z,81.33
2022-12-09T15:29:49.500Z,81.21
2022-12-09T15:32:20.317Z,81.49
2022-12-09T15:34:46.947Z,81.29
2022-12-09T15:37:13.397Z,81.45
2022-12-09T15:39:44.919Z,81.46
2022-12-09T15:42:12.905Z,81.39
2022-12-09T15:44:44.442Z,81.43
2022-12-09T15:47:13.882Z,80.94
2022-12-09T15:49:42.774Z,81.33
2022-12-09T15:52:09.204Z,80.91
2022-12-09T15:54:36.569Z,81.16
2022-12-09T15:57:03.670Z,81.14
2022-12-09T15:59:31.918Z,81.02
2022-12-09T16:01:58.512Z,81.21
2022-12-09T16:04:32.368Z,81.00
2022-12-09T16:07:04.453Z,80.96
2022-12-09T16:09:30.865Z,80.95
2022-12-09T16:11:57.316Z,80.87
2022-12-09T16:14:23.978Z,80.63
2022-12-09T16:16:51.460Z,80.58
2022-12-09T16:19:34.700Z,80.39
2022-12-09T16:22:05.960Z,80.85
2022-12-09T16:24:50.817Z,80.69
2022-12-09T16:27:19.799Z,80.81
2022-12-09T16:29:47.696Z,80.68
2022-12-09T16:32:28.292Z,80.79
2022-12-09T16:34:55.723Z,80.75
2022-12-09T16:37:37.406Z,80.72
2022-12-09T16:40:28.423Z,80.93
2022-12-09T16:42:55.775Z,80.61
2022-12-09T16:45:51.720Z,80.71
2022-12-09T16:48:18.956Z,80.26
2022-12-09T16:50:45.404Z,80.49
2022-12-09T16:53:16.043Z,80.71
2022-12-09T16:55:52.510Z,80.48
2022-12-09T16:58:18.996Z,80.77
2022-12-09T17:00:45.471Z,80.47
2022-12-09T17:03:35.374Z,80.30
2022-12-09T17:06:01.774Z,80.64
2022-12-09T17:08:28.271Z,80.29
2022-12-09T17:10:54.768Z,80.46
2022-12-09T17:13:21.182Z,80.25
2022-12-09T17:15:47.705Z,80.13
2022-12-09T17:18:14.400Z,80.41
2022-12-09T17:20:40.801Z,80.27
2022-12-09T17:23:07.227Z,80.21
2022-12-09T17:25:33.667Z,80.23
2022-12-09T17:28:03.775Z,80.13
2022-12-09T17:30:30.238Z,80.30
2022-12-09T17:32:58.102Z,80.42
2022-12-09T17:35:24.513Z,80.29
2022-12-09T17:37:50.939Z,80.23
2022-12-09T17:40:17.407Z,80.26
2022-12-09T17:42:49.047Z,80.04
2022-12-09T17:45:15.493Z,80.15
2022-12-09T17:47:42.122Z,80.28
2022-12-09T17:50:09.376Z,80.34
2022-12-09T17:52:36.041Z,80.22
2022-12-09T17:55:02.519Z,79.85
2022-12-09T17:57:29.004Z,79.86
2022-12-09T17:59:55.410Z,80.21
2022-12-09T18:02:21.943Z,79.99
2022-12-09T18:04:48.552Z,80.21
2022-12-09T18:07:15.119Z,79.86
2022-12-09T18:09:41.808Z,80.06
2022-12-09T18:12:08.366Z,79.88
2022-12-09T18:14:34.839Z,79.98
2022-12-09T18:17:01.394Z,79.85
2022-12-09T18:19:28.459Z,79.63
2022-12-09T18:21:55.639Z,79.72
2022-12-09T18:24:22.212Z,79.95
2022-12-09T18:26:48.766Z,79.91
2022-12-09T18:29:15.539Z,79.72
2022-12-09T18:31:45.566Z,79.83
2022-12-09T18:34:12.080Z,79.88
2022-12-09T18:36:38.639Z,80.04
2022-12-09T18:39:05.211Z,79.74
2022-12-09T18:41:31.991Z,79.90
2022-12-09T18:44:00.642Z,79.73
2022-12-09T18:46:28.056Z,79.90
2022-12-09T18:48:55.271Z,80.19
2022-12-09T18:51:21.758Z,79.64
2022-12-09T18:53:53.347Z,80.11
2022-12-09T18:56:19.829Z,79.91
2022-12-09T19:01:32.801Z,79.83
2022-12-09T19:04:02.602Z,79.96
2022-12-09T19:06:38.905Z,79.74
2022-12-09T19:09:06.510Z,80.09
2022-12-09T19:11:33.669Z,80.04
2022-12-09T19:14:00.202Z,80.11
2022-12-09T19:16:26.890Z,80.05
2022-12-09T19:18:53.684Z,79.99
2022-12-09T19:21:20.791Z,80.06
2022-12-09T19:23:47.659Z,80.02
2022-12-09T19:26:15.049Z,80.07
2022-12-09T19:28:46.398Z,79.84
2022-12-09T19:31:16.666Z,80.33
2022-12-09T19:33:43.267Z,80.14
2022-12-09T19:36:10.089Z,80.11
2022-12-09T19:38:36.536Z,79.83
2022-12-09T19:41:02.989Z,80.20
2022-12-09T19:43:29.433Z,80.34
2022-12-09T19:45:55.987Z,80.30
2022-12-09T19:48:22.464Z,80.32
2022-12-09T19:50:48.913Z,80.36
2022-12-09T19:53:15.359Z,80.16
2022-12-09T19:55:41.868Z,80.00
2022-12-09T19:58:09.249Z,80.25
2022-12-09T20:00:41.420Z,80.05
2022-12-09T20:03:08.306Z,80.10
2022-12-09T20:05:35.032Z,80.07
2022-12-09T20:08:01.488Z,80.13
2022-12-09T20:10:28.023Z,80.25
2022-12-09T20:12:54.495Z,80.13
2022-12-09T20:15:20.898Z,80.25
2022-12-09T20:17:47.328Z,80.08
2022-12-09T20:20:13.909Z,80.15
2022-12-09T20:23:02.427Z,80.30
2022-12-09T20:25:29.172Z,80.31
2022-12-09T20:27:55.669Z,80.25
2022-12-09T20:30:22.394Z,80.09
2022-12-09T20:32:48.807Z,80.19
2022-12-09T20:35:15.344Z,80.37
2022-12-09T20:37:42.144Z,80.26
2022-12-09T20:40:09.140Z,80.33
2022-12-09T20:42:35.817Z,80.51
2022-12-09T20:45:02.251Z,80.55
2022-12-09T20:47:28.852Z,80.50
2022-12-09T20:49:55.250Z,80.60
2022-12-09T20:52:21.667Z,80.62
2022-12-09T20:54:48.253Z,80.62
2022-12-09T20:57:14.863Z,80.67
2022-12-09T20:59:41.287Z,80.51
2022-12-09T21:02:13.616Z,80.72
2022-12-09T21:04:40.285Z,80.68
2022-12-09T21:07:06.723Z,80.63
2022-12-09T21:09:33.332Z,80.59
2022-12-09T21:12:00.346Z,80.81
2022-12-09T21:14:32.440Z,80.53
2022-12-09T21:16:59.381Z,80.79
2022-12-09T21:19:30.404Z,80.69
2022-12-09T21:21:56.911Z,80.34
2022-12-09T21:24:24.617Z,80.34
2022-12-09T21:26:53.409Z,80.72
2022-12-09T21:29:20.293Z,80.85
2022-12-09T21:31:50.437Z,80.76
2022-12-09T21:34:17.770Z,80.51
2022-12-09T21:36:44.413Z,80.74
2022-12-09T21:39:11.910Z,80.66
2022-12-09T21:41:38.389Z,80.79
2022-12-09T21:44:05.084Z,80.98
2022-12-09T21:46:33.498Z,81.03
2022-12-09T21:49:03.944Z,80.72
2022-12-09T21:51:31.221Z,80.92
2022-12-09T21:53:57.990Z,80.93
2022-12-09T21:56:25.105Z,81.00
2022-12-09T21:58:52.256Z,80.96
2022-12-09T22:01:19.762Z,80.74
2022-12-09T22:03:46.445Z,80.84
2022-12-09T22:06:12.939Z,80.85
2022-12-09T22:08:39.638Z,80.75
2022-12-09T22:11:09.851Z,80.76
2022-12-09T22:13:39.596Z,80.82
2022-12-09T22:16:26.917Z,80.74
2022-12-09T22:18:53.767Z,80.74
2022-12-09T22:21:25.632Z,80.69
2022-12-09T22:23:56.288Z,80.85
2022-12-09T22:26:22.810Z,80.70
2022-12-09T22:28:49.396Z,80.79
2022-12-09T22:31:17.452Z,80.44
2022-12-09T22:33:44.295Z,80.46
2022-12-09T22:36:11.019Z,80.26
2022-12-09T22:38:37.896Z,79.71
2022-12-09T22:41:04.852Z,78.99
2022-12-09T22:43:36.481Z,78.92
2022-12-09T22:46:05.175Z,79.09
2022-12-09T22:48:31.675Z,79.15
2022-12-09T22:51:08.691Z,79.44
2022-12-09T22:53:35.109Z,79.72
2022-12-09T22:56:01.570Z,79.87
2022-12-09T22:58:28.116Z,79.78
2022-12-09T23:00:54.665Z,79.67
2022-12-09T23:03:26.390Z,79.75
2022-12-09T23:05:52.900Z,79.88
2022-12-09T23:08:19.379Z,80.09
2022-12-09T23:10:45.933Z,80.54
2022-12-09T23:13:12.389Z,79.96
2022-12-09T23:15:38.859Z,79.89
2022-12-09T23:18:05.360Z,79.55
2022-12-09T23:20:32.388Z,80.17
2022-12-09T23:22:58.824Z,80.19
2022-12-09T23:25:25.289Z,80.70
2022-12-09T23:27:51.711Z,80.65
2022-12-09T23:30:18.174Z,80.42
2022-12-09T23:32:44.825Z,80.86
2022-12-09T23:35:11.447Z,81.07
2022-12-09T23:37:37.848Z,81.19
2022-12-09T23:40:05.312Z,81.13
2022-12-09T23:42:31.901Z,81.30
2022-12-09T23:44:58.533Z,81.42
2022-12-09T23:47:25.152Z,81.55
2022-12-09T23:49:51.562Z,81.55
2022-12-09T23:52:18.268Z,81.30
2022-12-09T23:54:44.676Z,81.54
2022-12-09T23:57:11.110Z,81.38
2022-12-09T23:59:37.625Z,81.13
